createdAt,value
2022-10-25T00:01:45.839Z,18.73
2022-10-25T00:04:14.444Z,12.10
2022-10-25T00:06:42.414Z,13.20
2022-10-25T00:09:09.726Z,11.00
2022-10-25T00:11:36.840Z,13.27
2022-10-25T00:14:07.246Z,10.20
2022-10-25T00:16:37.275Z,10.90
2022-10-25T00:19:05.905Z,10.47
2022-10-25T00:21:33.467Z,9.20
2022-10-25T00:24:00.801Z,8.50
2022-10-25T00:26:28.352Z,9.03
2022-10-25T00:28:56.097Z,9.37
2022-10-25T00:31:24.389Z,9.57
2022-10-25T00:33:51.581Z,8.80
2022-10-25T00:36:21.522Z,8.50
2022-10-25T00:38:49.200Z,8.90
2022-10-25T00:41:19.530Z,8.40
2022-10-25T00:44:11.388Z,8.60
2022-10-25T00:46:38.560Z,8.03
2022-10-25T00:49:10.946Z,8.13
2022-10-25T00:51:43.212Z,8.30
2022-10-25T00:54:13.625Z,7.73
2022-10-25T00:56:44.058Z,7.93
2022-10-25T00:59:15.077Z,7.73
2022-10-25T01:01:43.281Z,7.20
2022-10-25T01:04:13.583Z,7.13
2022-10-25T01:06:49.237Z,8.03
2022-10-25T01:09:24.345Z,7.30
2022-10-25T01:11:51.535Z,7.20
2022-10-25T01:14:19.334Z,6.53
2022-10-25T01:17:08.792Z,7.27
2022-10-25T01:20:06.167Z,7.30
2022-10-25T01:22:51.757Z,7.37
2022-10-25T01:25:31.379Z,7.47
2022-10-25T01:28:40.261Z,8.07
2022-10-25T01:31:39.871Z,6.77
2022-10-25T01:34:16.953Z,6.90
2022-10-25T01:36:47.042Z,6.67
2022-10-25T01:39:24.323Z,5.93
2022-10-25T01:42:13.224Z,5.60
2022-10-25T01:45:17.903Z,6.80
2022-10-25T01:47:52.751Z,6.53
2022-10-25T01:50:33.101Z,7.10
2022-10-25T01:53:00.352Z,6.60
2022-10-25T01:55:37.086Z,6.57
2022-10-25T01:58:21.897Z,6.27
2022-10-25T02:01:13.280Z,7.03
2022-10-25T02:03:56.311Z,6.57
2022-10-25T02:07:08.417Z,7.03
2022-10-25T02:12:55.829Z,6.10
2022-10-25T02:15:53.322Z,7.43
2022-10-25T02:18:25.108Z,7.60
2022-10-25T02:20:54.037Z,7.73
2022-10-25T02:23:22.377Z,7.60
2022-10-25T02:25:51.811Z,7.97
2022-10-25T02:28:22.825Z,6.90
2022-10-25T02:30:51.502Z,6.73
2022-10-25T02:33:18.718Z,5.50
2022-10-25T02:36:04.501Z,5.23
2022-10-25T02:38:31.756Z,7.00
2022-10-25T02:41:02.161Z,7.47
2022-10-25T02:46:07.474Z,7.30
2022-10-25T02:48:34.932Z,6.87
2022-10-25T02:51:02.288Z,6.57
2022-10-25T02:53:31.322Z,6.00
2022-10-25T02:56:13.174Z,6.00
2022-10-25T02:58:42.472Z,5.73
2022-10-25T03:01:10.405Z,4.87
2022-10-25T03:03:38.347Z,5.17
2022-10-25T03:06:06.166Z,5.37
2022-10-25T03:08:33.527Z,4.17
2022-10-25T03:11:01.796Z,3.47
2022-10-25T03:13:29.266Z,3.80
2022-10-25T03:15:57.042Z,3.53
2022-10-25T03:18:24.318Z,3.00
2022-10-25T03:20:52.047Z,2.90
2022-10-25T03:23:19.326Z,2.80
2022-10-25T03:25:47.933Z,3.23
2022-10-25T03:28:16.967Z,3.30
2022-10-25T03:30:44.202Z,3.73
2022-10-25T03:33:11.420Z,3.90
2022-10-25T03:35:38.560Z,3.60
2022-10-25T03:38:05.927Z,3.87
2022-10-25T03:40:33.277Z,4.30
2022-10-25T03:43:00.543Z,3.80
2022-10-25T03:45:28.798Z,3.00
2022-10-25T03:47:56.981Z,3.10
2022-10-25T03:50:24.186Z,3.40
2022-10-25T03:52:51.404Z,3.70
2022-10-25T03:55:18.698Z,3.47
2022-10-25T03:57:46.011Z,3.63
2022-10-25T04:00:14.124Z,3.50
2022-10-25T04:02:41.295Z,3.20
2022-10-25T04:05:08.989Z,3.80
2022-10-25T04:07:36.234Z,2.70
2022-10-25T04:10:04.602Z,3.20
2022-10-25T04:12:31.890Z,3.43
2022-10-25T04:14:58.920Z,2.60
2022-10-25T04:17:26.214Z,2.77
2022-10-25T04:19:53.369Z,3.57
2022-10-25T04:22:20.599Z,3.07
2022-10-25T04:24:47.720Z,2.90
2022-10-25T04:27:14.874Z,3.23
2022-10-25T04:29:41.995Z,3.70
2022-10-25T04:32:09.317Z,3.70
2022-10-25T04:34:36.428Z,3.77
2022-10-25T04:37:03.944Z,3.67
2022-10-25T04:39:31.138Z,3.70
2022-10-25T04:41:58.410Z,5.27
2022-10-25T04:44:25.740Z,13.50
2022-10-25T04:46:53.476Z,8.80
2022-10-25T04:49:20.806Z,6.97
2022-10-25T04:51:47.971Z,4.77
2022-10-25T04:54:15.329Z,4.40
2022-10-25T04:56:42.642Z,3.10
2022-10-25T04:59:10.853Z,3.30
2022-10-25T05:01:38.093Z,2.93
2022-10-25T05:04:05.332Z,3.17
2022-10-25T05:06:32.657Z,3.37
2022-10-25T05:08:59.964Z,3.70
2022-10-25T05:11:27.305Z,3.53
2022-10-25T05:13:54.449Z,4.03
2022-10-25T05:16:24.981Z,3.40
2022-10-25T05:18:55.224Z,3.33
2022-10-25T05:21:28.879Z,3.33
2022-10-25T05:24:02.045Z,3.37
2022-10-25T05:26:33.856Z,3.27
2022-10-25T05:29:03.641Z,3.27
2022-10-25T05:31:33.061Z,3.77
2022-10-25T05:34:01.465Z,3.20
2022-10-25T05:36:29.775Z,3.10
2022-10-25T05:39:06.140Z,3.00
2022-10-25T05:41:36.289Z,2.97
2022-10-25T05:44:06.292Z,2.97
2022-10-25T05:46:33.859Z,3.07
2022-10-25T05:49:02.224Z,3.50
2022-10-25T05:51:35.881Z,4.10
2022-10-25T05:54:12.996Z,4.00
2022-10-25T05:56:53.578Z,4.13
2022-10-25T05:59:20.907Z,4.30
2022-10-25T06:01:49.836Z,3.90
2022-10-25T06:04:19.539Z,3.90
2022-10-25T06:06:47.675Z,3.80
2022-10-25T06:09:15.834Z,4.83
2022-10-25T06:11:43.079Z,3.90
2022-10-25T06:14:11.199Z,3.37
2022-10-25T06:16:39.569Z,3.40
2022-10-25T06:19:07.989Z,3.63
2022-10-25T06:21:36.572Z,3.37
2022-10-25T06:24:05.453Z,3.70
2022-10-25T06:26:32.863Z,3.77
2022-10-25T06:29:03.501Z,3.50
2022-10-25T06:31:32.050Z,3.70
2022-10-25T06:34:00.796Z,3.50
2022-10-25T06:36:28.732Z,3.60
2022-10-25T06:38:55.931Z,3.43
2022-10-25T06:41:27.821Z,3.90
2022-10-25T06:43:55.675Z,4.57
2022-10-25T06:46:24.205Z,3.90
2022-10-25T06:48:53.543Z,4.30
2022-10-25T06:51:21.908Z,3.90
2022-10-25T06:53:57.495Z,3.43
2022-10-25T06:56:25.902Z,4.40
2022-10-25T06:58:54.880Z,4.13
2022-10-25T07:01:23.148Z,3.83
2022-10-25T07:03:51.242Z,3.70
2022-10-25T07:06:22.510Z,3.30
2022-10-25T07:08:56.741Z,3.40
2022-10-25T07:11:25.300Z,4.67
2022-10-25T07:13:52.746Z,4.07
2022-10-25T07:16:21.036Z,3.20
2022-10-25T07:18:48.909Z,3.33
2022-10-25T07:21:19.124Z,3.47
2022-10-25T07:23:47.294Z,4.77
2022-10-25T07:26:16.246Z,3.40
2022-10-25T07:28:45.331Z,3.50
2022-10-25T07:31:14.355Z,2.53
2022-10-25T07:33:41.483Z,2.90
2022-10-25T07:36:12.297Z,3.07
2022-10-25T07:38:40.782Z,2.20
2022-10-25T07:41:08.523Z,2.40
2022-10-25T07:43:35.710Z,2.50
2022-10-25T07:46:04.948Z,3.40
2022-10-25T07:48:32.339Z,3.40
2022-10-25T07:51:05.906Z,3.60
2022-10-25T07:53:33.231Z,2.00
2022-10-25T07:56:00.300Z,1.93
2022-10-25T07:58:28.544Z,1.87
2022-10-25T08:01:03.811Z,2.17
2022-10-25T08:03:32.028Z,2.10
2022-10-25T08:05:59.857Z,1.80
2022-10-25T08:08:27.527Z,2.13
2022-10-25T08:10:55.411Z,2.00
2022-10-25T08:13:23.011Z,2.10
2022-10-25T08:15:54.759Z,2.00
2022-10-25T08:18:24.864Z,2.43
2022-10-25T08:21:07.496Z,1.90
2022-10-25T08:23:34.741Z,1.70
2022-10-25T08:26:02.644Z,2.10
2022-10-25T08:28:33.131Z,1.90
2022-10-25T08:31:01.537Z,2.10
2022-10-25T08:33:29.739Z,2.20
2022-10-25T08:36:04.103Z,1.90
2022-10-25T08:38:31.362Z,1.97
2022-10-25T08:41:12.080Z,1.63
2022-10-25T08:43:57.783Z,1.83
2022-10-25T08:46:36.169Z,1.40
2022-10-25T08:49:30.358Z,1.50
2022-10-25T08:52:00.158Z,1.60
2022-10-25T08:54:41.085Z,1.50
2022-10-25T08:57:21.767Z,1.77
2022-10-25T08:59:56.071Z,2.03
2022-10-25T09:02:43.329Z,1.60
2022-10-25T09:05:30.158Z,1.70
2022-10-25T09:08:22.730Z,1.60
2022-10-25T09:11:26.168Z,2.27
2022-10-25T09:13:58.587Z,1.80
2022-10-25T09:16:33.881Z,1.70
2022-10-25T09:19:03.783Z,1.80
2022-10-25T09:22:02.557Z,1.80
2022-10-25T09:24:37.733Z,1.83
2022-10-25T09:27:15.680Z,1.57
2022-10-25T09:29:55.225Z,1.93
2022-10-25T09:32:42.144Z,1.47
2022-10-25T09:35:17.862Z,1.30
2022-10-25T09:38:01.899Z,1.70
2022-10-25T09:40:45.199Z,1.70
2022-10-25T09:43:21.879Z,1.33
2022-10-25T09:46:03.879Z,1.80
2022-10-25T09:48:46.630Z,1.60
2022-10-25T09:51:35.853Z,1.90
2022-10-25T09:54:19.514Z,2.20
2022-10-25T09:56:46.782Z,1.97
2022-10-25T09:59:16.120Z,1.93
2022-10-25T10:01:43.757Z,1.80
2022-10-25T10:04:34.351Z,1.73
2022-10-25T10:07:16.861Z,1.70
2022-10-25T10:09:46.184Z,1.70
2022-10-25T10:12:39.482Z,1.43
2022-10-25T10:15:18.421Z,1.80
2022-10-25T10:17:45.867Z,1.20
2022-10-25T10:20:18.521Z,1.60
2022-10-25T10:22:51.961Z,1.60
2022-10-25T10:25:28.298Z,2.20
2022-10-25T10:27:58.137Z,1.70
2022-10-25T10:30:30.469Z,1.80
2022-10-25T10:33:01.904Z,1.47
2022-10-25T10:35:33.419Z,2.00
2022-10-25T10:38:19.495Z,5.57
2022-10-25T10:40:51.727Z,2.20
2022-10-25T10:43:31.679Z,2.55
2022-10-25T10:46:04.713Z,3.22
2022-10-25T10:48:40.412Z,2.55
2022-10-25T10:51:38.863Z,1.98
2022-10-25T10:54:13.013Z,1.27
2022-10-25T10:56:40.247Z,2.35
2022-10-25T10:59:44.608Z,1.67
2022-10-25T11:02:37.448Z,1.63
2022-10-25T11:05:30.491Z,1.48
2022-10-25T11:08:08.129Z,2.75
2022-10-25T11:10:40.324Z,2.08
2022-10-25T11:13:09.125Z,1.25
2022-10-25T11:15:54.368Z,1.30
2022-10-25T11:18:51.239Z,1.40
2022-10-25T11:21:44.578Z,1.27
2022-10-25T11:24:36.771Z,1.17
2022-10-25T11:27:27.110Z,1.20
2022-10-25T11:30:17.215Z,1.20
2022-10-25T11:33:18.643Z,1.10
2022-10-25T11:36:10.394Z,1.10
2022-10-25T11:39:19.457Z,1.00
2022-10-25T11:41:59.953Z,1.33
2022-10-25T11:44:43.062Z,1.30
2022-10-25T11:47:43.153Z,1.30
2022-10-25T11:50:49.327Z,1.05
2022-10-25T11:53:28.761Z,0.90
2022-10-25T11:56:43.655Z,1.10
2022-10-25T11:59:25.336Z,1.10
2022-10-25T12:02:27.430Z,1.25
2022-10-25T12:05:01.795Z,1.10
2022-10-25T12:07:37.489Z,1.10
2022-10-25T12:10:22.834Z,1.20
2022-10-25T12:13:16.583Z,1.10
2022-10-25T12:15:56.253Z,1.13
2022-10-25T12:18:34.029Z,1.00
2022-10-25T12:21:03.920Z,1.10
2022-10-25T12:23:43.079Z,1.20
2022-10-25T12:26:16.383Z,1.30
2022-10-25T12:28:47.721Z,1.20
2022-10-25T12:31:25.477Z,1.00
2022-10-25T12:34:12.090Z,1.15
2022-10-25T12:36:46.301Z,1.23
2022-10-25T12:39:20.103Z,1.50
2022-10-25T12:41:53.047Z,0.93
2022-10-25T12:44:50.533Z,1.08
2022-10-25T12:47:44.396Z,1.00
2022-10-25T12:50:32.817Z,1.05
2022-10-25T12:53:46.104Z,1.15
2022-10-25T12:56:51.825Z,1.08
2022-10-25T12:59:34.114Z,1.20
2022-10-25T13:03:08.358Z,1.30
2022-10-25T13:05:58.218Z,1.20
2022-10-25T13:08:32.553Z,0.90
2022-10-25T13:11:04.057Z,1.00
2022-10-25T13:14:01.168Z,0.90
2022-10-25T13:16:31.302Z,0.80
2022-10-25T13:19:42.677Z,0.90
2022-10-25T13:22:35.887Z,1.00
2022-10-25T13:25:38.039Z,1.05
2022-10-25T13:28:15.437Z,0.70
2022-10-25T13:30:45.712Z,1.33
2022-10-25T13:33:21.685Z,1.10
2022-10-25T13:35:49.054Z,1.00
2022-10-25T13:38:24.728Z,1.15
2022-10-25T13:41:18.721Z,0.90
2022-10-25T13:43:56.712Z,1.10
2022-10-25T13:46:40.944Z,1.20
2022-10-25T13:49:34.934Z,1.30
2022-10-25T13:52:33.158Z,0.93
2022-10-25T13:55:04.164Z,0.93
2022-10-25T13:57:47.833Z,1.03
2022-10-25T14:00:39.658Z,1.57
2022-10-25T14:03:13.283Z,1.30
2022-10-25T14:05:56.207Z,1.20
2022-10-25T14:08:27.421Z,1.70
2022-10-25T14:10:55.912Z,2.23
2022-10-25T14:13:46.774Z,2.80
2022-10-25T14:16:32.494Z,1.50
2022-10-25T14:19:16.464Z,1.20
2022-10-25T14:21:53.846Z,1.67
2022-10-25T14:24:22.530Z,1.10
2022-10-25T14:26:58.403Z,1.60
2022-10-25T14:29:27.858Z,1.73
2022-10-25T14:31:56.223Z,1.40
2022-10-25T14:34:30.158Z,1.40
2022-10-25T14:36:59.064Z,1.53
2022-10-25T14:39:28.771Z,1.10
2022-10-25T14:41:58.294Z,1.07
2022-10-25T14:44:44.678Z,1.27
2022-10-25T14:47:30.629Z,1.17
2022-10-25T14:49:59.419Z,1.40
2022-10-25T14:52:28.570Z,1.07
2022-10-25T14:55:01.568Z,1.20
2022-10-25T14:57:30.123Z,1.10
2022-10-25T15:00:01.898Z,1.37
2022-10-25T15:02:37.231Z,1.10
2022-10-25T15:05:06.066Z,1.23
2022-10-25T15:07:41.549Z,1.27
2022-10-25T15:10:29.160Z,1.40
2022-10-25T15:13:02.815Z,1.30
2022-10-25T15:15:37.643Z,1.20
2022-10-25T15:18:05.426Z,1.03
2022-10-25T15:20:34.884Z,1.00
2022-10-25T15:23:22.325Z,1.53
2022-10-25T15:25:49.482Z,1.57
2022-10-25T15:28:18.550Z,1.20
2022-10-25T15:31:02.502Z,1.63
2022-10-25T15:33:32.636Z,1.57
2022-10-25T15:36:03.424Z,2.00
2022-10-25T15:38:54.209Z,1.80
2022-10-25T15:41:21.719Z,2.60
2022-10-25T15:43:48.775Z,1.60
2022-10-25T15:46:35.645Z,1.83
2022-10-25T15:49:08.690Z,1.90
2022-10-25T15:51:41.630Z,2.10
2022-10-25T15:54:20.589Z,1.73
2022-10-25T15:56:48.755Z,2.07
2022-10-25T16:01:51.961Z,1.67
2022-10-25T16:04:20.070Z,1.33
2022-10-25T16:06:47.273Z,1.67
2022-10-25T16:09:14.793Z,1.70
2022-10-25T16:11:47.104Z,1.63
2022-10-25T16:14:23.141Z,1.70
2022-10-25T16:16:51.691Z,1.53
2022-10-25T16:19:20.592Z,1.47
2022-10-25T16:21:48.443Z,1.57
2022-10-25T16:24:15.619Z,1.63
2022-10-25T16:26:46.494Z,1.33
2022-10-25T16:29:18.872Z,1.70
2022-10-25T16:31:46.748Z,1.70
2022-10-25T16:34:17.576Z,1.50
2022-10-25T16:36:49.285Z,1.60
2022-10-25T16:39:17.259Z,1.53
2022-10-25T16:41:46.697Z,1.70
2022-10-25T16:44:16.802Z,1.90
2022-10-25T16:46:44.933Z,3.83
2022-10-25T16:49:12.313Z,4.60
2022-10-25T16:51:40.999Z,5.23
2022-10-25T16:54:08.858Z,5.77
2022-10-25T16:56:36.160Z,5.57
2022-10-25T16:59:03.616Z,5.80
2022-10-25T17:01:34.425Z,6.30
2022-10-25T17:04:06.718Z,5.77
2022-10-25T17:06:41.291Z,7.13
2022-10-25T17:09:10.069Z,6.93
2022-10-25T17:11:38.255Z,6.00
2022-10-25T17:14:06.331Z,5.10
2022-10-25T17:16:33.622Z,4.00
2022-10-25T17:19:03.412Z,3.53
2022-10-25T17:21:33.482Z,3.30
2022-10-25T17:24:00.804Z,3.20
2022-10-25T17:26:28.251Z,3.40
2022-10-25T17:28:55.488Z,3.63
2022-10-25T17:31:22.618Z,3.10
2022-10-25T17:33:49.714Z,3.23
2022-10-25T17:36:19.300Z,3.30
2022-10-25T17:38:47.558Z,3.90
2022-10-25T17:41:15.422Z,3.97
2022-10-25T17:43:42.632Z,4.30
2022-10-25T17:46:21.420Z,4.80
2022-10-25T17:48:48.690Z,4.70
2022-10-25T17:51:16.385Z,6.13
2022-10-25T17:53:43.621Z,9.33
2022-10-25T17:56:16.854Z,11.80
2022-10-25T17:58:46.178Z,13.10
2022-10-25T18:01:15.690Z,13.47
2022-10-25T18:03:42.959Z,13.10
2022-10-25T18:06:13.073Z,11.27
2022-10-25T18:08:40.360Z,10.83
2022-10-25T18:11:15.885Z,11.13
2022-10-25T18:13:43.004Z,10.40
2022-10-25T18:16:10.775Z,9.53
2022-10-25T18:18:38.490Z,8.50
2022-10-25T18:21:11.337Z,7.97
2022-10-25T18:23:38.999Z,7.83
2022-10-25T18:26:07.477Z,9.07
2022-10-25T18:28:36.006Z,7.67
2022-10-25T18:31:09.624Z,7.87
2022-10-25T18:33:39.094Z,7.60
2022-10-25T18:36:17.957Z,6.27
2022-10-25T18:38:49.442Z,6.83
2022-10-25T18:41:20.943Z,6.97
2022-10-25T18:43:48.252Z,13.23
2022-10-25T18:46:15.413Z,19.23
2022-10-25T18:48:42.772Z,16.83
2022-10-25T18:51:12.143Z,12.00
2022-10-25T18:53:40.043Z,8.70
2022-10-25T18:56:13.039Z,6.97
2022-10-25T18:58:42.121Z,8.30
2022-10-25T19:01:11.679Z,7.13
2022-10-25T19:03:39.964Z,5.97
2022-10-25T19:06:08.517Z,6.70
2022-10-25T19:08:36.923Z,6.53
2022-10-25T19:11:12.650Z,6.47
2022-10-25T19:13:40.888Z,6.40
2022-10-25T19:16:09.275Z,7.40
2022-10-25T19:18:37.706Z,6.90
2022-10-25T19:21:07.619Z,6.97
2022-10-25T19:23:35.739Z,6.60
2022-10-25T19:26:08.474Z,6.37
2022-10-25T19:28:36.625Z,7.27
2022-10-25T19:31:08.113Z,7.20
2022-10-25T19:33:36.757Z,7.80
2022-10-25T19:36:04.922Z,6.93
2022-10-25T19:38:32.116Z,7.30
2022-10-25T19:41:01.197Z,10.80
2022-10-25T19:43:28.515Z,13.30
2022-10-25T19:45:57.747Z,9.63
2022-10-25T19:48:25.402Z,8.00
2022-10-25T19:50:52.677Z,8.30
2022-10-25T19:53:20.671Z,7.47
2022-10-25T19:56:04.795Z,8.20
2022-10-25T19:58:32.477Z,7.80
2022-10-25T20:01:05.191Z,7.70
2022-10-25T20:03:33.037Z,7.43
2022-10-25T20:06:02.305Z,7.20
2022-10-25T20:08:33.721Z,7.67
2022-10-25T20:11:01.656Z,8.20
2022-10-25T20:13:29.036Z,7.20
2022-10-25T20:15:56.301Z,7.50
2022-10-25T20:18:30.437Z,8.10
2022-10-25T20:21:00.760Z,8.13
2022-10-25T20:23:29.189Z,8.17
2022-10-25T20:25:56.322Z,8.50
2022-10-25T20:28:24.004Z,8.07
2022-10-25T20:30:51.480Z,8.40
2022-10-25T20:33:20.624Z,8.27
2022-10-25T20:35:47.728Z,8.40
2022-10-25T20:38:14.997Z,8.00
2022-10-25T20:40:45.457Z,8.83
2022-10-25T20:43:12.703Z,7.67
2022-10-25T20:45:41.788Z,8.40
2022-10-25T20:48:10.528Z,8.63
2022-10-25T20:50:37.622Z,8.33
2022-10-25T20:53:10.083Z,7.90
2022-10-25T20:55:38.041Z,7.40
2022-10-25T20:58:05.643Z,8.10
2022-10-25T21:00:33.333Z,7.60
2022-10-25T21:03:00.472Z,7.40
2022-10-25T21:05:28.201Z,7.47
2022-10-25T21:07:55.356Z,7.50
2022-10-25T21:10:22.568Z,7.50
2022-10-25T21:12:49.636Z,7.13
2022-10-25T21:15:16.997Z,6.70
2022-10-25T21:17:49.245Z,6.97
2022-10-25T21:20:17.043Z,7.07
2022-10-25T21:22:44.156Z,6.53
2022-10-25T21:25:11.677Z,5.77
2022-10-25T21:27:38.896Z,4.80
2022-10-25T21:30:07.813Z,4.63
2022-10-25T21:32:35.949Z,4.37
2022-10-25T21:35:03.171Z,4.83
2022-10-25T21:37:30.227Z,4.80
2022-10-25T21:39:57.412Z,4.90
2022-10-25T21:42:24.587Z,5.57
2022-10-25T21:44:51.728Z,5.00
2022-10-25T21:47:18.854Z,3.80
2022-10-25T21:49:46.051Z,3.80
2022-10-25T21:52:13.160Z,3.97
2022-10-25T21:54:40.332Z,3.40
2022-10-25T21:57:07.468Z,3.37
2022-10-25T21:59:34.817Z,4.27
2022-10-25T22:02:02.157Z,5.17
2022-10-25T22:04:29.543Z,4.87
2022-10-25T22:06:56.738Z,4.60
2022-10-25T22:09:23.941Z,4.37
2022-10-25T22:11:51.801Z,3.83
2022-10-25T22:14:19.640Z,4.23
2022-10-25T22:16:46.685Z,3.80
2022-10-25T22:19:19.519Z,4.23
2022-10-25T22:21:49.571Z,3.80
2022-10-25T22:24:16.914Z,4.20
2022-10-25T22:26:45.658Z,5.73
2022-10-25T22:29:14.325Z,6.23
2022-10-25T22:31:42.252Z,6.10
2022-10-25T22:34:11.011Z,5.17
2022-10-25T22:36:40.775Z,4.40
2022-10-25T22:39:09.297Z,4.50
2022-10-25T22:41:37.321Z,4.27
2022-10-25T22:44:04.703Z,5.17
2022-10-25T22:46:36.615Z,4.83
2022-10-25T22:49:09.100Z,4.50
2022-10-25T22:51:37.785Z,4.83
2022-10-25T22:54:05.522Z,5.47
2022-10-25T22:56:33.474Z,5.80
2022-10-25T22:59:03.017Z,5.20
2022-10-25T23:01:32.670Z,5.53
2022-10-25T23:04:01.402Z,5.60
2022-10-25T23:06:31.604Z,4.87
2022-10-25T23:09:01.227Z,4.07
2022-10-25T23:11:34.205Z,4.53
2022-10-25T23:14:02.107Z,4.50
2022-10-25T23:16:30.537Z,4.73
2022-10-25T23:18:57.987Z,4.50
2022-10-25T23:21:27.656Z,4.30
2022-10-25T23:23:56.594Z,4.37
2022-10-25T23:26:26.454Z,4.80
2022-10-25T23:28:55.997Z,4.53
2022-10-25T23:31:24.585Z,5.43
2022-10-25T23:33:54.088Z,5.40
2022-10-25T23:36:23.587Z,5.37
2022-10-25T23:38:53.268Z,5.40
2022-10-25T23:41:21.785Z,4.77
2022-10-25T23:43:49.269Z,5.40
2022-10-25T23:46:16.829Z,4.63
2022-10-25T23:48:44.024Z,4.97
2022-10-25T23:51:13.776Z,5.07
2022-10-25T23:53:41.495Z,5.57
2022-10-25T23:56:12.262Z,5.80
2022-10-25T23:58:40.638Z,6.10
